createdAt,value
2023-05-03T00:14:35.628Z,19.0
2023-05-03T00:34:35.595Z,19.0
2023-05-03T00:54:35.610Z,19.0
2023-05-03T01:14:35.389Z,19.0
2023-05-03T01:34:35.360Z,18.9
2023-05-03T01:54:35.360Z,18.9
2023-05-03T02:14:35.472Z,18.9
2023-05-03T02:34:35.401Z,18.9
2023-05-03T02:54:35.380Z,18.8
2023-05-03T03:14:35.392Z,18.8
2023-05-03T03:34:35.243Z,18.8
2023-05-03T03:54:35.359Z,18.8
2023-05-03T04:14:35.295Z,18.7
2023-05-03T04:34:35.255Z,18.7
2023-05-03T04:54:35.146Z,18.7
2023-05-03T05:14:35.240Z,18.7
2023-05-03T05:34:35.243Z,18.7
2023-05-03T05:54:35.099Z,18.7
2023-05-03T06:14:35.062Z,18.8
2023-05-03T06:34:35.094Z,18.9
2023-05-03T06:54:35.032Z,19.0
2023-05-03T07:14:34.975Z,19.1
2023-05-03T07:34:34.983Z,19.2
2023-05-03T07:54:34.906Z,19.3
2023-05-03T08:14:34.963Z,19.3
2023-05-03T08:34:34.890Z,19.4
2023-05-03T08:54:34.949Z,19.5
2023-05-03T09:14:34.787Z,19.6
2023-05-03T09:34:34.819Z,19.7
2023-05-03T09:54:34.917Z,19.8
2023-05-03T10:14:34.822Z,19.8
2023-05-03T10:34:34.763Z,19.8
2023-05-03T10:54:34.669Z,19.9
2023-05-03T11:14:34.763Z,19.9
2023-05-03T11:34:34.643Z,19.9
2023-05-03T11:54:34.597Z,19.8
2023-05-03T12:14:34.549Z,19.7
2023-05-03T12:34:34.572Z,19.6
2023-05-03T12:54:34.520Z,19.7
2023-05-03T13:14:34.536Z,19.8
2023-05-03T13:34:34.498Z,19.8
2023-05-03T13:54:34.581Z,19.9
2023-05-03T14:14:34.424Z,19.8
2023-05-03T14:34:34.415Z,19.8
2023-05-03T14:54:34.400Z,19.9
2023-05-03T15:14:34.333Z,19.9
2023-05-03T15:34:34.341Z,19.8
2023-05-03T15:54:34.381Z,19.8
2023-05-03T16:14:34.468Z,19.8
2023-05-03T16:34:34.320Z,19.7
2023-05-03T16:54:34.442Z,19.7
2023-05-03T17:14:34.306Z,19.6
2023-05-03T17:34:34.146Z,19.6
2023-05-03T17:54:34.290Z,19.6
2023-05-03T18:14:34.290Z,19.5
2023-05-03T18:34:34.284Z,19.5
2023-05-03T18:54:34.164Z,19.4
2023-05-03T19:14:34.239Z,19.4
2023-05-03T19:34:34.038Z,19.4
2023-05-03T19:54:34.030Z,19.4
2023-05-03T20:14:34.015Z,19.3
2023-05-03T20:34:33.947Z,19.3
2023-05-03T20:54:33.954Z,19.3
2023-05-03T21:14:33.880Z,19.3
2023-05-03T21:34:33.849Z,19.3
2023-05-03T21:54:33.834Z,19.3
2023-05-03T22:14:33.822Z,19.2
2023-05-03T22:34:33.897Z,19.2
2023-05-03T22:54:33.801Z,19.2
2023-05-03T23:14:33.767Z,19.2
2023-05-03T23:34:33.720Z,19.2
2023-05-03T23:54:33.697Z,19.1
